Time;durP1;ratioP1;P1;durP2;ratioP2;P2;SDS_P1;SDS_P2;PMS_P1;PMS_P2;Temp;Humidity;BMP_temperature;BMP_pressure;BME280_temperature;BME280_humidity;BME280_pressure;Samples;Min_cycle;Max_cycle;Signal;HPM_P1;HPM_P2
2023/02/03 00:00:46;;;;;;;30.60;18.23;;;;;;;;;;5113669;28;20250;-64
2023/02/03 00:03:14;;;;;;;24.63;16.13;;;;;;;;;;5114926;28;20199;-64
2023/02/03 00:05:41;;;;;;;25.63;18.63;;;;;;;;;;5115047;28;20193;-64
2023/02/03 00:08:09;;;;;;;24.63;19.80;;;;;;;;;;5114858;28;20193;-64
2023/02/03 00:10:37;;;;;;;25.98;19.92;;;;;;;;;;5116305;27;20442;-65
2023/02/03 00:13:05;;;;;;;33.03;20.10;;;;;;;;;;5129047;27;20203;-65
2023/02/03 00:15:32;;;;;;;22.15;17.85;;;;;;;;;;5133859;27;20438;-65
2023/02/03 00:18:00;;;;;;;23.48;17.60;;;;;;;;;;5133967;27;20219;-65
2023/02/03 00:20:27;;;;;;;30.75;17.08;;;;;;;;;;5133970;27;20195;-66
2023/02/03 00:22:54;;;;;;;27.73;20.73;;;;;;;;;;5134171;27;20206;-65
2023/02/03 00:25:21;;;;;;;25.52;16.85;;;;;;;;;;5134200;27;20218;-64
2023/02/03 00:27:48;;;;;;;30.20;20.55;;;;;;;;;;5133999;27;20198;-65
2023/02/03 00:30:17;;;;;;;28.15;21.60;;;;;;;;;;5134256;27;20198;-65
2023/02/03 00:32:44;;;;;;;27.48;20.75;;;;;;;;;;5134175;27;20223;-66
2023/02/03 00:35:11;;;;;;;26.55;19.63;;;;;;;;;;5134227;27;20203;-64
2023/02/03 00:37:38;;;;;;;30.40;20.50;;;;;;;;;;5133578;27;20203;-65
2023/02/03 00:40:06;;;;;;;24.65;19.27;;;;;;;;;;5133774;27;20195;-64
2023/02/03 00:42:35;;;;;;;28.08;19.65;;;;;;;;;;5134502;27;20191;-65
2023/02/03 00:45:02;;;;;;;25.80;18.67;;;;;;;;;;5134719;27;20257;-64
2023/02/03 00:47:31;;;;;;;23.73;16.90;;;;;;;;;;5134813;27;20199;-64
2023/02/03 00:49:58;;;;;;;22.90;17.20;;;;;;;;;;5135354;27;20534;-65
2023/02/03 00:52:25;;;;;;;27.05;19.95;;;;;;;;;;5135015;27;20226;-64
2023/02/03 00:54:52;;;;;;;27.08;20.73;;;;;;;;;;5134296;27;20655;-64
2023/02/03 00:57:19;;;;;;;23.67;18.73;;;;;;;;;;5134511;27;20228;-64
2023/02/03 00:59:47;;;;;;;28.53;19.13;;;;;;;;;;5135012;27;20282;-64
2023/02/03 01:02:15;;;;;;;24.50;18.25;;;;;;;;;;5133597;27;20462;-64
2023/02/03 01:04:44;;;;;;;28.88;16.92;;;;;;;;;;5135228;27;20196;-64
2023/02/03 01:07:11;;;;;;;28.63;17.52;;;;;;;;;;5134053;27;20207;-64
2023/02/03 01:09:38;;;;;;;23.57;17.87;;;;;;;;;;5123435;28;20669;-64
2023/02/03 01:12:06;;;;;;;27.63;18.90;;;;;;;;;;5118137;28;20480;-64
2023/02/03 01:14:33;;;;;;;25.38;15.13;;;;;;;;;;5120915;28;20261;-64
2023/02/03 01:17:01;;;;;;;26.17;16.83;;;;;;;;;;5120915;28;20237;-65
2023/02/03 01:19:28;;;;;;;26.20;15.65;;;;;;;;;;5120633;28;20199;-64
2023/02/03 01:21:56;;;;;;;22.38;15.77;;;;;;;;;;5120572;28;20200;-64
2023/02/03 01:24:24;;;;;;;15.65;12.85;;;;;;;;;;5120876;28;20196;-64
2023/02/03 01:26:51;;;;;;;22.98;13.65;;;;;;;;;;5120523;28;20200;-65
2023/02/03 01:29:18;;;;;;;26.67;17.45;;;;;;;;;;5120288;28;20671;-64
2023/02/03 01:31:45;;;;;;;21.25;16.73;;;;;;;;;;5120043;28;20223;-65
2023/02/03 01:34:15;;;;;;;23.08;15.35;;;;;;;;;;5120586;28;20193;-64
2023/02/03 01:36:42;;;;;;;21.92;15.45;;;;;;;;;;5120414;28;20244;-64
2023/02/03 01:39:11;;;;;;;26.33;16.65;;;;;;;;;;5120507;28;20198;-64
2023/02/03 01:41:39;;;;;;;26.77;15.27;;;;;;;;;;5120086;28;20198;-64
2023/02/03 01:44:21;;;;;;;23.40;15.52;;;;;;;;;;5120017;28;20660;-64
2023/02/03 01:46:49;;;;;;;22.52;15.27;;;;;;;;;;5119420;28;20191;-64
2023/02/03 01:49:20;;;;;;;19.92;14.70;;;;;;;;;;5120395;28;20200;-64
2023/02/03 01:51:47;;;;;;;25.52;15.45;;;;;;;;;;5120513;28;20207;-64
2023/02/03 01:54:18;;;;;;;22.85;16.38;;;;;;;;;;5120044;28;20197;-64
2023/02/03 01:56:47;;;;;;;20.98;14.40;;;;;;;;;;5120300;28;20689;-64
2023/02/03 01:59:15;;;;;;;18.55;15.07;;;;;;;;;;5120531;28;20201;-64
2023/02/03 02:01:43;;;;;;;30.27;14.48;;;;;;;;;;5125647;27;20188;-64
2023/02/03 02:04:10;;;;;;;18.53;14.20;;;;;;;;;;5140517;27;20649;-64
2023/02/03 02:06:37;;;;;;;15.48;11.55;;;;;;;;;;5140802;27;20906;-64
2023/02/03 02:09:05;;;;;;;17.50;13.00;;;;;;;;;;5134747;27;20196;-64
2023/02/03 02:11:34;;;;;;;21.67;13.98;;;;;;;;;;5119731;28;20203;-64
2023/02/03 02:14:02;;;;;;;25.10;14.97;;;;;;;;;;5120151;28;20256;-66
2023/02/03 02:16:35;;;;;;;21.88;13.50;;;;;;;;;;5120369;28;20450;-64
2023/02/03 02:19:12;;;;;;;22.30;10.50;;;;;;;;;;5120382;28;20195;-64
2023/02/03 02:21:45;;;;;;;23.30;13.40;;;;;;;;;;5120066;28;20181;-64
2023/02/03 02:24:30;;;;;;;26.25;13.15;;;;;;;;;;5116238;28;20435;-64
2023/02/03 02:27:08;;;;;;;16.20;11.43;;;;;;;;;;5116829;28;20196;-65
2023/02/03 02:29:54;;;;;;;16.10;12.70;;;;;;;;;;5116497;28;20200;-64
2023/02/03 02:32:28;;;;;;;14.20;9.73;;;;;;;;;;5116846;28;20223;-64
2023/02/03 02:35:01;;;;;;;18.25;11.40;;;;;;;;;;5116852;28;20555;-64
2023/02/03 02:37:35;;;;;;;14.13;12.20;;;;;;;;;;5116716;28;20181;-64
2023/02/03 02:40:07;;;;;;;12.57;9.98;;;;;;;;;;5116513;28;20205;-64
2023/02/03 02:42:36;;;;;;;25.75;11.80;;;;;;;;;;5116221;28;20630;-64
2023/02/03 02:45:07;;;;;;;16.65;12.10;;;;;;;;;;5116495;28;20189;-64
2023/02/03 02:47:36;;;;;;;16.23;10.17;;;;;;;;;;5117250;28;20361;-64
2023/02/03 02:50:06;;;;;;;19.48;12.10;;;;;;;;;;5116127;28;20450;-64
2023/02/03 02:52:36;;;;;;;17.98;11.80;;;;;;;;;;5116689;28;20568;-64
2023/02/03 02:55:06;;;;;;;14.90;9.48;;;;;;;;;;5116369;28;20627;-64
2023/02/03 02:57:35;;;;;;;21.40;10.85;;;;;;;;;;5116203;28;20246;-64
2023/02/03 03:00:03;;;;;;;24.60;11.83;;;;;;;;;;5116271;28;20226;-64
2023/02/03 03:02:33;;;;;;;17.10;10.32;;;;;;;;;;5119544;27;20458;-64
2023/02/03 03:05:03;;;;;;;16.93;9.60;;;;;;;;;;5116386;28;20195;-64
2023/02/03 03:07:35;;;;;;;17.58;11.07;;;;;;;;;;5116303;28;20519;-65
2023/02/03 03:10:04;;;;;;;19.02;12.60;;;;;;;;;;5119121;27;20189;-65
2023/02/03 03:12:32;;;;;;;18.80;10.50;;;;;;;;;;5115476;28;20222;-64
2023/02/03 03:15:00;;;;;;;17.10;10.05;;;;;;;;;;5116050;28;20445;-64
2023/02/03 03:17:30;;;;;;;20.57;11.80;;;;;;;;;;5115458;28;20676;-64
2023/02/03 03:20:00;;;;;;;13.40;9.10;;;;;;;;;;5116263;28;20439;-64
2023/02/03 03:22:30;;;;;;;13.18;8.15;;;;;;;;;;5116112;28;20892;-64
2023/02/03 03:25:00;;;;;;;12.50;8.70;;;;;;;;;;5116876;28;20189;-64
2023/02/03 03:27:30;;;;;;;16.40;10.10;;;;;;;;;;5115750;28;20634;-64
2023/02/03 03:29:59;;;;;;;20.15;9.00;;;;;;;;;;5115624;28;20789;-64
2023/02/03 03:32:26;;;;;;;16.33;7.90;;;;;;;;;;5115303;28;20303;-64
2023/02/03 03:34:54;;;;;;;13.63;8.75;;;;;;;;;;5115137;28;20201;-64
2023/02/03 03:37:24;;;;;;;14.70;9.15;;;;;;;;;;5115040;28;20199;-65
2023/02/03 03:39:55;;;;;;;13.10;8.73;;;;;;;;;;5115432;28;20559;-65
2023/02/03 03:42:25;;;;;;;14.93;8.32;;;;;;;;;;5115692;28;20522;-64
2023/02/03 03:44:57;;;;;;;17.23;8.80;;;;;;;;;;5115435;28;20182;-65
2023/02/03 03:47:27;;;;;;;16.55;7.80;;;;;;;;;;5114922;28;20553;-65
2023/02/03 03:49:55;;;;;;;17.15;8.65;;;;;;;;;;5115180;28;20194;-65
2023/02/03 03:52:25;;;;;;;15.45;9.00;;;;;;;;;;5115042;28;20213;-65
2023/02/03 03:54:55;;;;;;;11.80;8.43;;;;;;;;;;5115456;28;20211;-64
2023/02/03 03:57:24;;;;;;;20.75;8.18;;;;;;;;;;5114790;28;20225;-65
2023/02/03 03:59:51;;;;;;;18.00;8.20;;;;;;;;;;5114681;28;20661;-64
2023/02/03 04:02:20;;;;;;;11.13;7.72;;;;;;;;;;5117130;27;20964;-67
2023/02/03 04:04:48;;;;;;;18.25;9.02;;;;;;;;;;5114832;28;20292;-64
2023/02/03 04:07:16;;;;;;;13.20;8.07;;;;;;;;;;5115437;28;20193;-65
2023/02/03 04:09:43;;;;;;;20.60;7.77;;;;;;;;;;5128690;27;20453;-64
2023/02/03 04:12:16;;;;;;;23.83;8.50;;;;;;;;;;5135347;27;20458;-64
2023/02/03 04:14:43;;;;;;;10.10;7.10;;;;;;;;;;5135287;27;20203;-65
2023/02/03 04:17:10;;;;;;;8.10;6.93;;;;;;;;;;5135515;27;20188;-64
2023/02/03 04:19:37;;;;;;;13.15;8.00;;;;;;;;;;5135174;27;20218;-64
2023/02/03 04:22:04;;;;;;;9.32;6.60;;;;;;;;;;5135120;27;20563;-64
2023/02/03 04:24:32;;;;;;;15.33;5.93;;;;;;;;;;5134737;27;20677;-64
2023/02/03 04:26:59;;;;;;;10.60;6.55;;;;;;;;;;5135088;27;20468;-64
2023/02/03 04:29:27;;;;;;;12.30;6.32;;;;;;;;;;5134964;27;20555;-64
2023/02/03 04:31:54;;;;;;;12.00;6.47;;;;;;;;;;5135015;27;20192;-64
2023/02/03 04:34:22;;;;;;;14.10;5.80;;;;;;;;;;5134484;27;20466;-65
2023/02/03 04:36:49;;;;;;;8.25;6.30;;;;;;;;;;5134604;27;20192;-65
2023/02/03 04:39:16;;;;;;;15.20;7.13;;;;;;;;;;5134818;27;20663;-64
2023/02/03 04:41:43;;;;;;;6.50;4.90;;;;;;;;;;5135103;27;20528;-64
2023/02/03 04:44:10;;;;;;;16.55;5.80;;;;;;;;;;5134997;27;20464;-64
2023/02/03 04:46:39;;;;;;;14.93;6.00;;;;;;;;;;5134232;27;20199;-64
2023/02/03 04:49:06;;;;;;;11.27;6.27;;;;;;;;;;5134322;27;20673;-64
2023/02/03 04:51:33;;;;;;;9.82;5.90;;;;;;;;;;5134720;27;20446;-64
2023/02/03 04:54:00;;;;;;;7.57;4.93;;;;;;;;;;5133446;27;20223;-67
2023/02/03 04:56:27;;;;;;;7.28;4.95;;;;;;;;;;5133834;27;20227;-64
2023/02/03 04:58:55;;;;;;;7.85;5.78;;;;;;;;;;5133590;27;20180;-65
2023/02/03 05:01:22;;;;;;;8.70;5.10;;;;;;;;;;5134483;27;20198;-65
2023/02/03 05:03:50;;;;;;;19.33;6.10;;;;;;;;;;5133916;27;20196;-64
2023/02/03 05:06:18;;;;;;;13.93;4.68;;;;;;;;;;5134190;27;20191;-65
2023/02/03 05:08:45;;;;;;;8.63;5.80;;;;;;;;;;5133656;27;20215;-65
2023/02/03 05:11:12;;;;;;;7.80;4.53;;;;;;;;;;5128617;28;20279;-65
2023/02/03 05:13:39;;;;;;;5.70;4.22;;;;;;;;;;5112902;28;20581;-64
2023/02/03 05:16:07;;;;;;;9.23;4.32;;;;;;;;;;5113573;28;20538;-64
2023/02/03 05:18:34;;;;;;;7.68;4.57;;;;;;;;;;5113364;28;20196;-64
2023/02/03 05:21:02;;;;;;;6.47;4.27;;;;;;;;;;5113001;28;20196;-64
2023/02/03 05:23:30;;;;;;;8.50;4.78;;;;;;;;;;5113369;28;20451;-64
2023/02/03 05:25:57;;;;;;;5.50;3.85;;;;;;;;;;5112971;28;20198;-64
2023/02/03 05:28:24;;;;;;;8.32;4.80;;;;;;;;;;5113662;28;20192;-68
2023/02/03 05:30:51;;;;;;;10.68;4.70;;;;;;;;;;5112914;28;20196;-64
2023/02/03 05:33:18;;;;;;;8.97;5.97;;;;;;;;;;5113330;28;20213;-63
2023/02/03 05:35:46;;;;;;;4.95;3.50;;;;;;;;;;5113148;28;20478;-63
2023/02/03 05:38:14;;;;;;;9.35;3.65;;;;;;;;;;5113975;28;20529;-63
2023/02/03 05:43:35;;;;;;;10.63;4.27;;;;;;;;;;5076759;28;20561;-63
2023/02/03 05:46:02;;;;;;;9.73;3.50;;;;;;;;;;5113450;28;20435;-63
2023/02/03 05:48:29;;;;;;;12.65;3.90;;;;;;;;;;5113252;28;20446;-64
2023/02/03 05:50:57;;;;;;;8.53;4.67;;;;;;;;;;5112958;28;20304;-63
2023/02/03 05:53:26;;;;;;;6.93;3.58;;;;;;;;;;5113305;28;20492;-63
2023/02/03 05:55:53;;;;;;;10.60;5.67;;;;;;;;;;5112971;28;20193;-63
2023/02/03 05:58:20;;;;;;;4.88;3.22;;;;;;;;;;5114722;28;20843;-63
2023/02/03 06:00:48;;;;;;;6.50;3.67;;;;;;;;;;5117256;28;20193;-63
2023/02/03 06:03:15;;;;;;;7.93;4.70;;;;;;;;;;5116092;28;20197;-64
2023/02/03 06:05:43;;;;;;;11.55;5.05;;;;;;;;;;5115504;28;20434;-63
2023/02/03 06:08:10;;;;;;;7.78;4.00;;;;;;;;;;5116336;28;20204;-63
2023/02/03 06:10:38;;;;;;;14.00;4.15;;;;;;;;;;5116908;28;20220;-63
2023/02/03 06:13:10;;;;;;;15.30;4.67;;;;;;;;;;5116473;28;20685;-63
2023/02/03 06:15:37;;;;;;;6.05;3.83;;;;;;;;;;5117045;28;20490;-63
2023/02/03 06:18:05;;;;;;;5.07;4.32;;;;;;;;;;5116971;28;20284;-63
2023/02/03 06:20:32;;;;;;;5.80;3.53;;;;;;;;;;5117113;28;20199;-63
2023/02/03 06:22:59;;;;;;;5.83;2.83;;;;;;;;;;5116794;28;20457;-63
2023/02/03 06:25:27;;;;;;;7.55;4.15;;;;;;;;;;5116715;28;20439;-63
2023/02/03 06:27:55;;;;;;;5.80;3.50;;;;;;;;;;5117105;28;20642;-63
2023/02/03 06:30:23;;;;;;;10.30;4.53;;;;;;;;;;5117049;28;20453;-63
2023/02/03 06:32:50;;;;;;;4.25;3.50;;;;;;;;;;5116773;28;20815;-63
2023/02/03 06:35:18;;;;;;;4.60;3.70;;;;;;;;;;5116731;28;20193;-63
2023/02/03 06:37:45;;;;;;;7.03;3.53;;;;;;;;;;5117011;28;20215;-63
2023/02/03 06:40:13;;;;;;;6.25;3.95;;;;;;;;;;5116918;28;20435;-63
2023/02/03 06:42:40;;;;;;;5.33;3.67;;;;;;;;;;5116676;28;20567;-63
2023/02/03 06:45:10;;;;;;;7.25;4.88;;;;;;;;;;5116339;28;20439;-63
2023/02/03 06:47:40;;;;;;;8.53;4.07;;;;;;;;;;5116383;28;20201;-63
2023/02/03 06:50:07;;;;;;;7.33;3.93;;;;;;;;;;5116458;28;20843;-63
2023/02/03 06:52:34;;;;;;;12.50;5.30;;;;;;;;;;5116408;28;20801;-64
2023/02/03 06:55:02;;;;;;;8.20;4.20;;;;;;;;;;5116146;28;20470;-63
2023/02/03 06:57:29;;;;;;;13.33;3.90;;;;;;;;;;5116057;28;20523;-63
2023/02/03 06:59:57;;;;;;;7.10;3.90;;;;;;;;;;5116100;28;20719;-63
2023/02/03 07:02:26;;;;;;;6.03;3.10;;;;;;;;;;5116438;28;20441;-63
2023/02/03 07:04:53;;;;;;;6.22;3.65;;;;;;;;;;5116404;28;20534;-63
2023/02/03 07:07:20;;;;;;;6.25;5.03;;;;;;;;;;5116113;28;20200;-63
2023/02/03 07:09:47;;;;;;;6.00;3.97;;;;;;;;;;5115119;28;20228;-62
2023/02/03 07:12:15;;;;;;;9.88;4.65;;;;;;;;;;5115629;28;20507;-62
2023/02/03 07:14:42;;;;;;;7.13;4.50;;;;;;;;;;5115863;28;20213;-62
2023/02/03 07:17:09;;;;;;;7.95;4.72;;;;;;;;;;5115499;28;20439;-62
2023/02/03 07:19:37;;;;;;;8.70;4.90;;;;;;;;;;5115523;28;20196;-62
2023/02/03 07:22:05;;;;;;;11.60;4.43;;;;;;;;;;5115763;28;20435;-63
2023/02/03 07:24:32;;;;;;;4.80;4.30;;;;;;;;;;5115625;28;20936;-62
2023/02/03 07:26:59;;;;;;;8.97;5.33;;;;;;;;;;5115276;28;20443;-63
2023/02/03 07:29:26;;;;;;;11.00;6.07;;;;;;;;;;5115495;28;20964;-63
2023/02/03 07:31:53;;;;;;;6.60;5.00;;;;;;;;;;5115498;28;20192;-63
2023/02/03 07:34:21;;;;;;;9.10;5.17;;;;;;;;;;5115865;28;20470;-63
2023/02/03 07:36:49;;;;;;;9.70;5.20;;;;;;;;;;5115295;28;20908;-63
2023/02/03 07:39:16;;;;;;;13.93;6.27;;;;;;;;;;5115021;28;20203;-63
2023/02/03 07:41:43;;;;;;;11.37;4.37;;;;;;;;;;5115235;28;20439;-63
2023/02/03 07:44:11;;;;;;;6.93;4.87;;;;;;;;;;5114927;28;20571;-63
2023/02/03 07:46:43;;;;;;;6.30;4.80;;;;;;;;;;5114815;28;20800;-63
2023/02/03 07:49:10;;;;;;;8.20;4.90;;;;;;;;;;5115483;28;20483;-62
2023/02/03 07:51:38;;;;;;;6.30;4.80;;;;;;;;;;5115004;28;20450;-62
2023/02/03 07:54:06;;;;;;;8.00;4.43;;;;;;;;;;5115042;28;20485;-63
2023/02/03 07:56:33;;;;;;;18.10;6.47;;;;;;;;;;5114875;28;20994;-63
2023/02/03 07:59:01;;;;;;;11.40;5.77;;;;;;;;;;5115127;28;20438;-63
2023/02/03 08:01:28;;;;;;;8.70;5.30;;;;;;;;;;5115219;28;20435;-63
2023/02/03 08:03:55;;;;;;;8.45;5.00;;;;;;;;;;5114633;28;20450;-62
2023/02/03 08:06:22;;;;;;;6.50;5.05;;;;;;;;;;5114540;28;20189;-63
2023/02/03 08:08:49;;;;;;;5.70;3.77;;;;;;;;;;5115415;28;20279;-63
2023/02/03 08:11:18;;;;;;;7.23;6.50;;;;;;;;;;5114904;28;20453;-63
2023/02/03 08:13:45;;;;;;;15.37;7.40;;;;;;;;;;5114725;28;20822;-63
2023/02/03 08:16:13;;;;;;;6.73;5.40;;;;;;;;;;5114952;28;20474;-63
2023/02/03 08:18:40;;;;;;;14.47;7.97;;;;;;;;;;5114972;28;20439;-62
2023/02/03 08:21:07;;;;;;;6.35;4.80;;;;;;;;;;5113446;28;20443;-63
2023/02/03 08:23:34;;;;;;;8.68;5.85;;;;;;;;;;5114615;28;20287;-63
2023/02/03 08:26:01;;;;;;;12.60;6.87;;;;;;;;;;5114255;28;20646;-63
2023/02/03 08:28:30;;;;;;;12.00;6.33;;;;;;;;;;5114392;28;20789;-63
2023/02/03 08:30:57;;;;;;;10.27;6.10;;;;;;;;;;5114129;28;20448;-64
2023/02/03 08:33:24;;;;;;;7.87;5.37;;;;;;;;;;5113978;28;20453;-62
2023/02/03 08:35:51;;;;;;;12.60;6.73;;;;;;;;;;5114413;28;20440;-63
2023/02/03 08:38:20;;;;;;;15.50;6.57;;;;;;;;;;5113898;28;20534;-62
2023/02/03 08:40:47;;;;;;;13.02;5.78;;;;;;;;;;5114084;28;20439;-63
2023/02/03 08:43:15;;;;;;;9.38;6.40;;;;;;;;;;5114295;28;20550;-63
2023/02/03 08:45:43;;;;;;;9.33;5.90;;;;;;;;;;5114241;28;20196;-63
2023/02/03 08:48:10;;;;;;;11.33;5.70;;;;;;;;;;5114056;28;20525;-63
2023/02/03 08:50:43;;;;;;;8.60;5.77;;;;;;;;;;5114332;28;20460;-62
2023/02/03 08:53:10;;;;;;;11.40;6.30;;;;;;;;;;5113826;28;20423;-63
2023/02/03 08:55:39;;;;;;;7.53;5.27;;;;;;;;;;5113677;28;20483;-63
2023/02/03 08:58:06;;;;;;;9.73;6.10;;;;;;;;;;5113852;28;20475;-63
2023/02/03 09:00:34;;;;;;;13.87;6.03;;;;;;;;;;5113638;28;20954;-63
2023/02/03 09:03:03;;;;;;;5.20;4.70;;;;;;;;;;5113692;28;20474;-62
2023/02/03 09:05:31;;;;;;;9.90;5.33;;;;;;;;;;5113764;28;20538;-63
2023/02/03 09:07:58;;;;;;;18.57;6.17;;;;;;;;;;5113763;28;20798;-63
2023/02/03 09:10:25;;;;;;;20.20;6.90;;;;;;;;;;5113663;28;20877;-63
2023/02/03 09:12:52;;;;;;;10.97;5.10;;;;;;;;;;5113480;28;20465;-62
2023/02/03 09:15:19;;;;;;;10.87;5.73;;;;;;;;;;5113783;28;20475;-63
2023/02/03 09:17:46;;;;;;;17.47;6.73;;;;;;;;;;5113805;28;20446;-63
2023/02/03 09:20:15;;;;;;;23.13;6.13;;;;;;;;;;5113791;28;20442;-63
2023/02/03 09:22:42;;;;;;;11.53;6.47;;;;;;;;;;5113694;28;20446;-63
2023/02/03 09:25:09;;;;;;;7.17;4.60;;;;;;;;;;5113644;28;20438;-63
2023/02/03 09:27:37;;;;;;;10.03;5.00;;;;;;;;;;5113331;28;20891;-63
2023/02/03 09:30:04;;;;;;;9.60;5.90;;;;;;;;;;5113861;28;20441;-63
2023/02/03 09:32:32;;;;;;;6.13;4.67;;;;;;;;;;5114974;28;20477;-63
2023/02/03 09:35:00;;;;;;;9.23;5.07;;;;;;;;;;5117677;28;20561;-63
2023/02/03 09:37:29;;;;;;;10.03;6.17;;;;;;;;;;5117712;28;20642;-63
2023/02/03 09:39:58;;;;;;;10.63;6.47;;;;;;;;;;5117856;28;20930;-63
2023/02/03 09:42:43;;;;;;;7.37;4.60;;;;;;;;;;5117318;28;20482;-63
2023/02/03 09:45:15;;;;;;;9.40;6.00;;;;;;;;;;5117062;28;20443;-63
2023/02/03 09:47:44;;;;;;;8.63;4.93;;;;;;;;;;5117577;28;20437;-63
2023/02/03 09:50:13;;;;;;;8.90;6.10;;;;;;;;;;5117239;28;20446;-63
2023/02/03 09:52:43;;;;;;;12.27;6.07;;;;;;;;;;5117308;28;20449;-63
2023/02/03 09:55:17;;;;;;;7.73;5.40;;;;;;;;;;5117634;28;20485;-63
2023/02/03 09:57:50;;;;;;;10.87;6.23;;;;;;;;;;5117024;28;20475;-63
2023/02/03 10:00:20;;;;;;;12.97;5.57;;;;;;;;;;5117632;28;20423;-63
2023/02/03 10:02:53;;;;;;;15.83;4.57;;;;;;;;;;5117041;28;20491;-63
2023/02/03 10:05:23;;;;;;;8.27;5.03;;;;;;;;;;5118435;28;20518;-63
2023/02/03 10:07:56;;;;;;;16.20;6.55;;;;;;;;;;5117289;28;20427;-63
2023/02/03 10:10:26;;;;;;;9.97;5.50;;;;;;;;;;5117385;28;20282;-63
2023/02/03 10:12:59;;;;;;;22.00;6.00;;;;;;;;;;5117177;28;20428;-63
2023/02/03 10:15:41;;;;;;;9.63;5.30;;;;;;;;;;5117294;28;20559;-63
2023/02/03 10:18:10;;;;;;;8.20;4.30;;;;;;;;;;5104388;28;20459;-63
2023/02/03 10:20:40;;;;;;;9.15;6.13;;;;;;;;;;5116706;28;20438;-63
2023/02/03 10:23:12;;;;;;;9.50;4.37;;;;;;;;;;5117308;28;20546;-63
2023/02/03 10:25:41;;;;;;;9.43;5.60;;;;;;;;;;5116639;28;20941;-63
2023/02/03 10:28:11;;;;;;;11.37;5.07;;;;;;;;;;5116411;28;20554;-63
2023/02/03 10:30:44;;;;;;;5.93;4.20;;;;;;;;;;5117029;28;20440;-63
2023/02/03 10:33:12;;;;;;;14.23;5.30;;;;;;;;;;5117036;28;20445;-62
2023/02/03 10:35:45;;;;;;;20.10;6.50;;;;;;;;;;5116370;28;20483;-62
2023/02/03 10:38:16;;;;;;;12.80;5.93;;;;;;;;;;5116975;28;20423;-62
2023/02/03 10:40:43;;;;;;;14.13;5.30;;;;;;;;;;5116434;28;20427;-62
2023/02/03 10:45:58;;;;;;;8.37;4.40;;;;;;;;;;5116192;28;20448;-62
2023/02/03 10:48:26;;;;;;;11.93;5.90;;;;;;;;;;5116354;28;20445;-62
2023/02/03 10:50:54;;;;;;;20.43;5.83;;;;;;;;;;5116469;28;20445;-62
2023/02/03 10:53:27;;;;;;;13.37;6.50;;;;;;;;;;5116382;28;20442;-63
2023/02/03 10:56:02;;;;;;;5.50;4.07;;;;;;;;;;5116179;28;20474;-62
2023/02/03 10:58:30;;;;;;;14.27;5.10;;;;;;;;;;5116713;28;20453;-62
2023/02/03 11:00:58;;;;;;;9.90;4.60;;;;;;;;;;5115948;28;20488;-63
2023/02/03 11:03:26;;;;;;;12.97;7.10;;;;;;;;;;5116359;28;20529;-63
2023/02/03 11:06:04;;;;;;;9.10;5.77;;;;;;;;;;5116147;28;20447;-63
2023/02/03 11:08:33;;;;;;;7.53;4.90;;;;;;;;;;5116379;28;20527;-63
2023/02/03 11:11:03;;;;;;;10.27;4.50;;;;;;;;;;5115724;28;20530;-63
2023/02/03 11:13:30;;;;;;;6.13;3.57;;;;;;;;;;5116031;28;20185;-63
2023/02/03 11:15:59;;;;;;;11.47;4.93;;;;;;;;;;5115843;28;20474;-63
2023/02/03 11:18:28;;;;;;;10.17;4.53;;;;;;;;;;5115771;28;20495;-62
2023/02/03 11:20:55;;;;;;;16.00;5.10;;;;;;;;;;5115472;28;20440;-62
2023/02/03 11:23:22;;;;;;;10.77;4.63;;;;;;;;;;5116160;28;20796;-62
2023/02/03 11:25:51;;;;;;;6.43;4.70;;;;;;;;;;5115672;28;20489;-62
2023/02/03 11:28:18;;;;;;;13.23;4.90;;;;;;;;;;5115356;28;20482;-62
2023/02/03 11:30:45;;;;;;;13.73;5.67;;;;;;;;;;5115226;28;20478;-62
2023/02/03 11:33:18;;;;;;;24.67;5.90;;;;;;;;;;5116065;28;20942;-63
2023/02/03 11:35:54;;;;;;;18.90;7.07;;;;;;;;;;5115445;28;20470;-62
2023/02/03 11:38:29;;;;;;;13.77;5.10;;;;;;;;;;5115119;28;20426;-62
2023/02/03 11:41:00;;;;;;;14.63;5.00;;;;;;;;;;5115421;28;20506;-62
2023/02/03 11:43:29;;;;;;;5.10;4.53;;;;;;;;;;5115737;28;20510;-63
2023/02/03 11:46:00;;;;;;;12.60;4.70;;;;;;;;;;5114987;28;20474;-63
2023/02/03 11:48:30;;;;;;;12.13;4.97;;;;;;;;;;5115049;28;20427;-64
2023/02/03 11:51:00;;;;;;;8.87;4.53;;;;;;;;;;5115164;28;20445;-63
2023/02/03 11:53:30;;;;;;;8.90;4.40;;;;;;;;;;5115805;28;20427;-62
2023/02/03 11:56:04;;;;;;;8.67;4.33;;;;;;;;;;5114824;28;20510;-63
2023/02/03 11:58:56;;;;;;;14.00;4.23;;;;;;;;;;5115088;28;20426;-63
2023/02/03 12:01:30;;;;;;;7.83;3.37;;;;;;;;;;5115187;28;20427;-63
2023/02/03 12:04:03;;;;;;;11.10;5.40;;;;;;;;;;5115199;28;20432;-63
2023/02/03 12:06:38;;;;;;;6.07;3.87;;;;;;;;;;5115142;28;20791;-63
2023/02/03 12:09:16;;;;;;;11.50;4.93;;;;;;;;;;5115138;28;20431;-63
2023/02/03 12:11:55;;;;;;;11.33;4.60;;;;;;;;;;5115051;28;20975;-63
2023/02/03 12:14:29;;;;;;;12.60;5.93;;;;;;;;;;5114434;28;20438;-63
2023/02/03 12:17:23;;;;;;;5.57;4.53;;;;;;;;;;5114657;28;20459;-64
2023/02/03 12:19:59;;;;;;;6.20;4.17;;;;;;;;;;5114765;28;20744;-62
2023/02/03 12:22:30;;;;;;;9.43;3.70;;;;;;;;;;5114838;28;20433;-64
2023/02/03 12:25:01;;;;;;;10.13;3.73;;;;;;;;;;5114282;28;20469;-64
2023/02/03 12:27:35;;;;;;;11.70;4.33;;;;;;;;;;5114976;28;20455;-64
2023/02/03 12:30:04;;;;;;;20.83;4.57;;;;;;;;;;5114872;28;20437;-64
2023/02/03 12:32:35;;;;;;;8.55;4.03;;;;;;;;;;5115031;28;20528;-65
2023/02/03 12:35:07;;;;;;;10.50;4.90;;;;;;;;;;5114120;28;20692;-64
2023/02/03 12:37:44;;;;;;;15.00;4.90;;;;;;;;;;5114355;28;20183;-63
2023/02/03 12:40:15;;;;;;;7.90;4.13;;;;;;;;;;5114484;28;20419;-62
2023/02/03 12:42:48;;;;;;;14.00;5.27;;;;;;;;;;5114520;28;20846;-62
2023/02/03 12:45:18;;;;;;;11.87;4.83;;;;;;;;;;5113880;28;20441;-62
2023/02/03 12:47:46;;;;;;;14.93;4.67;;;;;;;;;;5114248;28;20443;-63
2023/02/03 12:50:15;;;;;;;13.67;3.70;;;;;;;;;;5114363;28;20447;-63
2023/02/03 12:52:44;;;;;;;14.30;4.40;;;;;;;;;;5114303;28;20449;-63
2023/02/03 12:55:19;;;;;;;17.43;3.60;;;;;;;;;;5113957;28;20477;-63
2023/02/03 12:57:53;;;;;;;17.55;4.90;;;;;;;;;;5114497;28;20466;-63
2023/02/03 13:00:26;;;;;;;18.65;5.30;;;;;;;;;;5114376;28;20292;-63
2023/02/03 13:03:14;;;;;;;20.53;6.10;;;;;;;;;;5114001;28;20185;-62
2023/02/03 13:05:43;;;;;;;26.33;4.40;;;;;;;;;;5114393;28;20431;-62
2023/02/03 13:08:14;;;;;;;15.10;4.10;;;;;;;;;;5113203;28;20458;-62
2023/02/03 13:10:47;;;;;;;16.98;4.32;;;;;;;;;;5113805;28;20438;-62
2023/02/03 13:13:18;;;;;;;8.70;4.83;;;;;;;;;;5114200;28;20181;-62
2023/02/03 13:15:46;;;;;;;18.10;4.93;;;;;;;;;;5114026;28;20820;-62
2023/02/03 13:18:20;;;;;;;19.03;4.90;;;;;;;;;;5114002;28;20447;-62
2023/02/03 13:20:47;;;;;;;16.07;4.77;;;;;;;;;;5114149;28;20431;-62
2023/02/03 13:23:16;;;;;;;9.30;4.97;;;;;;;;;;5114164;28;20439;-62
2023/02/03 13:25:48;;;;;;;17.27;4.38;;;;;;;;;;5113768;28;20197;-62
2023/02/03 13:28:23;;;;;;;20.90;5.00;;;;;;;;;;5113579;28;20623;-62
2023/02/03 13:30:56;;;;;;;23.73;7.40;;;;;;;;;;5113429;28;20513;-62
2023/02/03 13:33:37;;;;;;;22.00;5.23;;;;;;;;;;5114084;28;20185;-62
2023/02/03 13:36:10;;;;;;;14.13;4.40;;;;;;;;;;5113875;28;20470;-62
2023/02/03 13:38:45;;;;;;;17.88;4.90;;;;;;;;;;5114097;28;20439;-62
2023/02/03 13:41:18;;;;;;;20.17;5.47;;;;;;;;;;5113041;28;20191;-62
2023/02/03 13:43:49;;;;;;;16.55;3.60;;;;;;;;;;5113932;28;20510;-62
2023/02/03 13:46:24;;;;;;;18.93;4.57;;;;;;;;;;5113684;28;20275;-62
2023/02/03 13:48:52;;;;;;;16.00;3.90;;;;;;;;;;5114018;28;20466;-62
2023/02/03 13:51:21;;;;;;;20.03;4.70;;;;;;;;;;5113532;28;20526;-62
2023/02/03 13:53:49;;;;;;;14.63;4.90;;;;;;;;;;5113235;28;20495;-62
2023/02/03 13:56:19;;;;;;;24.63;6.30;;;;;;;;;;5120609;28;20592;-62
2023/02/03 13:58:59;;;;;;;12.70;4.43;;;;;;;;;;5134160;28;20840;-62
2023/02/03 14:01:29;;;;;;;16.23;5.03;;;;;;;;;;5131405;28;20452;-63
2023/02/03 14:03:56;;;;;;;23.50;5.20;;;;;;;;;;5132756;28;20508;-63
2023/02/03 14:07:00;;;;;;;19.87;5.50;;;;;;;;;;5133402;28;20473;-62
2023/02/03 14:09:46;;;;;;;25.70;5.57;;;;;;;;;;5133529;28;20500;-62
2023/02/03 14:12:18;;;;;;;16.47;4.47;;;;;;;;;;5133370;28;20422;-62
2023/02/03 14:15:02;;;;;;;16.00;5.47;;;;;;;;;;5133609;28;20513;-62
2023/02/03 14:18:03;;;;;;;15.67;4.30;;;;;;;;;;5133072;28;20526;-62
2023/02/03 14:20:49;;;;;;;26.05;6.38;;;;;;;;;;5136227;27;20477;-62
2023/02/03 14:23:20;;;;;;;22.53;4.43;;;;;;;;;;5121604;27;20522;-62
2023/02/03 14:25:49;;;;;;;15.32;4.90;;;;;;;;;;5136751;27;20444;-62
2023/02/03 14:28:18;;;;;;;20.50;4.03;;;;;;;;;;5137034;27;20196;-63
2023/02/03 14:31:11;;;;;;;21.67;4.63;;;;;;;;;;5136544;27;20199;-63
2023/02/03 14:34:04;;;;;;;15.67;5.00;;;;;;;;;;5136858;27;20429;-62
2023/02/03 14:36:34;;;;;;;21.50;4.70;;;;;;;;;;5136804;27;20506;-62
2023/02/03 14:39:03;;;;;;;33.37;6.10;;;;;;;;;;5137205;27;20446;-62
2023/02/03 14:41:35;;;;;;;18.00;6.50;;;;;;;;;;5137142;27;20461;-62
2023/02/03 14:44:05;;;;;;;19.30;4.60;;;;;;;;;;5137736;27;20427;-62
2023/02/03 14:46:40;;;;;;;17.80;3.70;;;;;;;;;;5137017;27;20430;-62
2023/02/03 14:49:20;;;;;;;17.10;4.57;;;;;;;;;;5137142;27;20441;-62
2023/02/03 14:51:53;;;;;;;25.73;5.75;;;;;;;;;;5136996;27;20816;-62